Terminal Aerodrome Forecast
Issued by NWS

Home | Current Version | Previous Version | Text Only | Print | Product List | Glossary On
Versions: 1 2 3 4 5 6 7 8 9 10 11 12 13 14 15 16
445
FTUS42 KMHX 301139
TAFPGV
TAF
KPGV 301139Z 3012/0112 21005KT P6SM SCT007 OVC015
     FM301500 21010G17KT P6SM SCT040
     FM302200 19009KT P6SM SKC
     FM010600 19008KT P6SM SCT006 OVC015
      AMD LTD TO CLD VIS AND WIND=

USA.gov is the U.S. government's official web portal to all federal, state and local government web resources and services.